sensor_id;sensor_type;location;lat;lon;timestamp;P1;durP1;ratioP1;P2;durP2;ratioP2
77701;SDS011;66868;42.708;23.404;2023-04-01T00:00:54;14.07;;;9.00;;
77701;SDS011;66868;42.708;23.404;2023-04-01T00:03:21;18.27;;;10.85;;
77701;SDS011;66868;42.708;23.404;2023-04-01T00:05:47;15.00;;;9.35;;
77701;SDS011;66868;42.708;23.404;2023-04-01T00:08:13;21.20;;;9.63;;
77701;SDS011;66868;42.708;23.404;2023-04-01T00:10:39;14.13;;;9.95;;
77701;SDS011;66868;42.708;23.404;2023-04-01T00:13:05;14.52;;;10.10;;
77701;SDS011;66868;42.708;23.404;2023-04-01T00:15:30;20.42;;;10.65;;
77701;SDS011;66868;42.708;23.404;2023-04-01T00:17:56;17.63;;;10.15;;
77701;SDS011;66868;42.708;23.404;2023-04-01T00:20:21;12.20;;;9.20;;
77701;SDS011;66868;42.708;23.404;2023-04-01T00:22:47;16.50;;;9.50;;
77701;SDS011;66868;42.708;23.404;2023-04-01T00:25:13;12.77;;;8.48;;
77701;SDS011;66868;42.708;23.404;2023-04-01T00:27:40;17.42;;;8.98;;
77701;SDS011;66868;42.708;23.404;2023-04-01T00:30:06;17.92;;;8.68;;
77701;SDS011;66868;42.708;23.404;2023-04-01T00:32:33;19.52;;;9.55;;
77701;SDS011;66868;42.708;23.404;2023-04-01T00:34:59;14.88;;;8.25;;
77701;SDS011;66868;42.708;23.404;2023-04-01T00:37:25;17.77;;;8.60;;
77701;SDS011;66868;42.708;23.404;2023-04-01T00:39:52;12.93;;;8.55;;
77701;SDS011;66868;42.708;23.404;2023-04-01T00:42:17;13.15;;;8.35;;
77701;SDS011;66868;42.708;23.404;2023-04-01T00:44:44;12.98;;;8.73;;
77701;SDS011;66868;42.708;23.404;2023-04-01T00:47:12;13.20;;;8.50;;
77701;SDS011;66868;42.708;23.404;2023-04-01T00:49:39;17.00;;;9.48;;
77701;SDS011;66868;42.708;23.404;2023-04-01T00:52:08;20.83;;;9.80;;
77701;SDS011;66868;42.708;23.404;2023-04-01T00:54:37;11.13;;;8.95;;
77701;SDS011;66868;42.708;23.404;2023-04-01T00:57:08;15.90;;;9.32;;
77701;SDS011;66868;42.708;23.404;2023-04-01T00:59:39;12.80;;;9.07;;
77701;SDS011;66868;42.708;23.404;2023-04-01T01:02:08;15.48;;;8.80;;
77701;SDS011;66868;42.708;23.404;2023-04-01T01:04:36;13.55;;;9.98;;
77701;SDS011;66868;42.708;23.404;2023-04-01T01:07:24;18.77;;;9.32;;
77701;SDS011;66868;42.708;23.404;2023-04-01T01:10:26;16.15;;;9.20;;
77701;SDS011;66868;42.708;23.404;2023-04-01T01:18:28;17.42;;;9.07;;
77701;SDS011;66868;42.708;23.404;2023-04-01T01:32:20;12.80;;;7.50;;
77701;SDS011;66868;42.708;23.404;2023-04-01T01:35:26;15.18;;;8.85;;
77701;SDS011;66868;42.708;23.404;2023-04-01T01:38:08;18.42;;;9.60;;
77701;SDS011;66868;42.708;23.404;2023-04-01T01:40:38;13.85;;;9.80;;
77701;SDS011;66868;42.708;23.404;2023-04-01T01:43:08;8.93;;;7.65;;
77701;SDS011;66868;42.708;23.404;2023-04-01T01:45:37;16.30;;;7.03;;
77701;SDS011;66868;42.708;23.404;2023-04-01T01:48:10;14.80;;;7.28;;
77701;SDS011;66868;42.708;23.404;2023-04-01T01:50:36;11.63;;;7.47;;
77701;SDS011;66868;42.708;23.404;2023-04-01T01:53:10;10.77;;;7.07;;
77701;SDS011;66868;42.708;23.404;2023-04-01T01:55:39;14.98;;;6.82;;
77701;SDS011;66868;42.708;23.404;2023-04-01T01:58:13;15.80;;;6.38;;
77701;SDS011;66868;42.708;23.404;2023-04-01T02:00:44;9.98;;;6.65;;
77701;SDS011;66868;42.708;23.404;2023-04-01T02:03:15;11.55;;;6.47;;
77701;SDS011;66868;42.708;23.404;2023-04-01T02:05:42;10.32;;;6.95;;
77701;SDS011;66868;42.708;23.404;2023-04-01T02:10:45;13.25;;;8.75;;
77701;SDS011;66868;42.708;23.404;2023-04-01T02:13:23;15.80;;;10.88;;
77701;SDS011;66868;42.708;23.404;2023-04-01T02:15:54;16.58;;;11.75;;
77701;SDS011;66868;42.708;23.404;2023-04-01T02:18:25;18.85;;;11.43;;
77701;SDS011;66868;42.708;23.404;2023-04-01T02:20:50;18.40;;;11.07;;
77701;SDS011;66868;42.708;23.404;2023-04-01T02:23:16;14.48;;;10.07;;
77701;SDS011;66868;42.708;23.404;2023-04-01T02:25:42;19.38;;;9.25;;
77701;SDS011;66868;42.708;23.404;2023-04-01T02:28:09;13.48;;;8.98;;
77701;SDS011;66868;42.708;23.404;2023-04-01T02:30:38;14.15;;;9.43;;
77701;SDS011;66868;42.708;23.404;2023-04-01T02:33:07;17.05;;;9.30;;
77701;SDS011;66868;42.708;23.404;2023-04-01T02:35:34;15.05;;;9.30;;
77701;SDS011;66868;42.708;23.404;2023-04-01T02:38:02;14.23;;;8.70;;
77701;SDS011;66868;42.708;23.404;2023-04-01T02:40:28;12.52;;;9.07;;
77701;SDS011;66868;42.708;23.404;2023-04-01T02:42:53;15.60;;;9.23;;
77701;SDS011;66868;42.708;23.404;2023-04-01T02:45:19;15.20;;;9.52;;
77701;SDS011;66868;42.708;23.404;2023-04-01T02:47:44;13.25;;;8.23;;
77701;SDS011;66868;42.708;23.404;2023-04-01T02:50:10;13.00;;;7.63;;
77701;SDS011;66868;42.708;23.404;2023-04-01T02:52:35;12.07;;;7.53;;
77701;SDS011;66868;42.708;23.404;2023-04-01T02:55:01;11.30;;;7.57;;
77701;SDS011;66868;42.708;23.404;2023-04-01T02:57:27;18.05;;;8.35;;
77701;SDS011;66868;42.708;23.404;2023-04-01T02:59:53;12.10;;;7.53;;
77701;SDS011;66868;42.708;23.404;2023-04-01T03:02:18;11.88;;;7.18;;
77701;SDS011;66868;42.708;23.404;2023-04-01T03:04:43;11.75;;;7.97;;
77701;SDS011;66868;42.708;23.404;2023-04-01T03:07:09;12.38;;;8.30;;
77701;SDS011;66868;42.708;23.404;2023-04-01T03:09:35;14.07;;;9.05;;
77701;SDS011;66868;42.708;23.404;2023-04-01T03:12:02;15.20;;;8.38;;
77701;SDS011;66868;42.708;23.404;2023-04-01T03:14:28;19.40;;;9.38;;
77701;SDS011;66868;42.708;23.404;2023-04-01T03:16:53;10.82;;;8.70;;
77701;SDS011;66868;42.708;23.404;2023-04-01T03:19:18;16.92;;;8.18;;
77701;SDS011;66868;42.708;23.404;2023-04-01T03:21:44;19.67;;;9.05;;
77701;SDS011;66868;42.708;23.404;2023-04-01T03:24:09;16.63;;;9.02;;
77701;SDS011;66868;42.708;23.404;2023-04-01T03:26:35;14.75;;;8.45;;
77701;SDS011;66868;42.708;23.404;2023-04-01T03:29:00;12.98;;;8.23;;
77701;SDS011;66868;42.708;23.404;2023-04-01T03:31:25;12.65;;;8.20;;
77701;SDS011;66868;42.708;23.404;2023-04-01T03:33:51;11.02;;;8.60;;
77701;SDS011;66868;42.708;23.404;2023-04-01T03:36:17;17.70;;;8.00;;
77701;SDS011;66868;42.708;23.404;2023-04-01T03:38:43;11.43;;;8.25;;
77701;SDS011;66868;42.708;23.404;2023-04-01T03:41:12;17.02;;;8.30;;
77701;SDS011;66868;42.708;23.404;2023-04-01T03:43:41;15.55;;;8.82;;
77701;SDS011;66868;42.708;23.404;2023-04-01T03:46:07;15.88;;;9.05;;
77701;SDS011;66868;42.708;23.404;2023-04-01T03:48:33;14.15;;;9.38;;
77701;SDS011;66868;42.708;23.404;2023-04-01T03:50:58;12.10;;;8.75;;
77701;SDS011;66868;42.708;23.404;2023-04-01T03:53:23;20.27;;;9.20;;
77701;SDS011;66868;42.708;23.404;2023-04-01T03:55:49;14.02;;;8.98;;
77701;SDS011;66868;42.708;23.404;2023-04-01T03:58:16;11.32;;;8.90;;
77701;SDS011;66868;42.708;23.404;2023-04-01T04:00:42;12.00;;;8.70;;
77701;SDS011;66868;42.708;23.404;2023-04-01T04:03:07;17.63;;;9.73;;
77701;SDS011;66868;42.708;23.404;2023-04-01T04:05:33;13.95;;;8.65;;
77701;SDS011;66868;42.708;23.404;2023-04-01T04:07:58;14.48;;;8.63;;
77701;SDS011;66868;42.708;23.404;2023-04-01T04:10:23;9.63;;;8.50;;
77701;SDS011;66868;42.708;23.404;2023-04-01T04:12:50;20.42;;;11.82;;
77701;SDS011;66868;42.708;23.404;2023-04-01T04:15:15;20.88;;;13.38;;
77701;SDS011;66868;42.708;23.404;2023-04-01T04:17:41;18.05;;;12.18;;
77701;SDS011;66868;42.708;23.404;2023-04-01T04:20:06;17.70;;;11.57;;
77701;SDS011;66868;42.708;23.404;2023-04-01T04:22:33;13.52;;;10.80;;
77701;SDS011;66868;42.708;23.404;2023-04-01T04:24:58;17.52;;;10.10;;
77701;SDS011;66868;42.708;23.404;2023-04-01T04:27:24;15.70;;;9.20;;
77701;SDS011;66868;42.708;23.404;2023-04-01T04:29:49;16.23;;;8.80;;
77701;SDS011;66868;42.708;23.404;2023-04-01T04:32:15;14.55;;;9.02;;
77701;SDS011;66868;42.708;23.404;2023-04-01T04:34:40;12.50;;;8.80;;
77701;SDS011;66868;42.708;23.404;2023-04-01T04:37:05;20.77;;;10.13;;
77701;SDS011;66868;42.708;23.404;2023-04-01T04:39:31;19.67;;;9.20;;
77701;SDS011;66868;42.708;23.404;2023-04-01T04:41:56;11.43;;;8.52;;
77701;SDS011;66868;42.708;23.404;2023-04-01T04:44:21;34.13;;;12.95;;
77701;SDS011;66868;42.708;23.404;2023-04-01T04:46:47;16.70;;;8.02;;
77701;SDS011;66868;42.708;23.404;2023-04-01T04:49:12;13.80;;;8.23;;
77701;SDS011;66868;42.708;23.404;2023-04-01T04:51:38;36.38;;;13.82;;
77701;SDS011;66868;42.708;23.404;2023-04-01T04:54:04;64.55;;;20.42;;
77701;SDS011;66868;42.708;23.404;2023-04-01T04:56:30;20.75;;;10.20;;
77701;SDS011;66868;42.708;23.404;2023-04-01T04:58:57;16.73;;;8.77;;
77701;SDS011;66868;42.708;23.404;2023-04-01T05:01:22;13.73;;;8.23;;
77701;SDS011;66868;42.708;23.404;2023-04-01T05:03:48;11.90;;;8.80;;
77701;SDS011;66868;42.708;23.404;2023-04-01T05:06:15;26.10;;;10.38;;
77701;SDS011;66868;42.708;23.404;2023-04-01T05:08:42;29.27;;;13.27;;
77701;SDS011;66868;42.708;23.404;2023-04-01T05:11:15;33.40;;;13.30;;
77701;SDS011;66868;42.708;23.404;2023-04-01T05:13:42;34.33;;;14.55;;
77701;SDS011;66868;42.708;23.404;2023-04-01T05:16:12;43.88;;;15.95;;
77701;SDS011;66868;42.708;23.404;2023-04-01T05:18:40;48.40;;;16.60;;
77701;SDS011;66868;42.708;23.404;2023-04-01T05:21:06;39.63;;;15.48;;
77701;SDS011;66868;42.708;23.404;2023-04-01T05:23:33;49.85;;;18.90;;
77701;SDS011;66868;42.708;23.404;2023-04-01T05:26:02;42.88;;;18.02;;
77701;SDS011;66868;42.708;23.404;2023-04-01T05:28:29;38.35;;;15.07;;
77701;SDS011;66868;42.708;23.404;2023-04-01T05:30:54;28.02;;;10.30;;
77701;SDS011;66868;42.708;23.404;2023-04-01T05:33:19;20.02;;;10.13;;
77701;SDS011;66868;42.708;23.404;2023-04-01T05:35:45;18.75;;;10.02;;
77701;SDS011;66868;42.708;23.404;2023-04-01T05:38:10;23.13;;;10.40;;
77701;SDS011;66868;42.708;23.404;2023-04-01T05:40:35;13.38;;;8.70;;
77701;SDS011;66868;42.708;23.404;2023-04-01T05:43:01;18.38;;;7.80;;
77701;SDS011;66868;42.708;23.404;2023-04-01T05:45:27;18.10;;;8.07;;
77701;SDS011;66868;42.708;23.404;2023-04-01T05:47:52;14.20;;;6.80;;
77701;SDS011;66868;42.708;23.404;2023-04-01T05:50:19;17.77;;;6.57;;
77701;SDS011;66868;42.708;23.404;2023-04-01T05:52:45;14.15;;;6.82;;
77701;SDS011;66868;42.708;23.404;2023-04-01T05:55:10;10.85;;;6.18;;
77701;SDS011;66868;42.708;23.404;2023-04-01T05:57:36;12.50;;;6.38;;
77701;SDS011;66868;42.708;23.404;2023-04-01T06:00:02;8.95;;;5.00;;
77701;SDS011;66868;42.708;23.404;2023-04-01T06:02:29;10.73;;;5.35;;
77701;SDS011;66868;42.708;23.404;2023-04-01T06:04:58;12.48;;;5.45;;
77701;SDS011;66868;42.708;23.404;2023-04-01T06:07:34;10.30;;;6.00;;
77701;SDS011;66868;42.708;23.404;2023-04-01T06:10:00;12.85;;;5.80;;
77701;SDS011;66868;42.708;23.404;2023-04-01T06:18:00;7.28;;;5.40;;
77701;SDS011;66868;42.708;23.404;2023-04-01T06:55:32;18.15;;;6.75;;
77701;SDS011;66868;42.708;23.404;2023-04-01T06:58:06;16.13;;;7.35;;
77701;SDS011;66868;42.708;23.404;2023-04-01T07:00:42;16.67;;;6.97;;
77701;SDS011;66868;42.708;23.404;2023-04-01T07:06:04;25.45;;;6.88;;
77701;SDS011;66868;42.708;23.404;2023-04-01T07:08:35;9.80;;;6.45;;
77701;SDS011;66868;42.708;23.404;2023-04-01T07:11:04;20.17;;;5.55;;
77701;SDS011;66868;42.708;23.404;2023-04-01T07:24:16;12.43;;;4.93;;
77701;SDS011;66868;42.708;23.404;2023-04-01T07:26:47;8.02;;;4.40;;
77701;SDS011;66868;42.708;23.404;2023-04-01T07:29:17;15.48;;;4.80;;
77701;SDS011;66868;42.708;23.404;2023-04-01T07:37:32;15.77;;;4.43;;
77701;SDS011;66868;42.708;23.404;2023-04-01T07:55:46;5.93;;;3.63;;
77701;SDS011;66868;42.708;23.404;2023-04-01T08:03:33;18.35;;;4.50;;
77701;SDS011;66868;42.708;23.404;2023-04-01T08:08:50;7.65;;;3.85;;
77701;SDS011;66868;42.708;23.404;2023-04-01T08:14:37;11.23;;;4.40;;
77701;SDS011;66868;42.708;23.404;2023-04-01T08:17:08;13.52;;;4.35;;
77701;SDS011;66868;42.708;23.404;2023-04-01T08:20:01;7.80;;;4.30;;
77701;SDS011;66868;42.708;23.404;2023-04-01T08:22:32;11.27;;;3.40;;
77701;SDS011;66868;42.708;23.404;2023-04-01T08:25:05;14.48;;;3.25;;
77701;SDS011;66868;42.708;23.404;2023-04-01T08:27:37;6.55;;;3.20;;
77701;SDS011;66868;42.708;23.404;2023-04-01T08:32:43;7.13;;;3.83;;
77701;SDS011;66868;42.708;23.404;2023-04-01T08:37:49;5.97;;;3.30;;
77701;SDS011;66868;42.708;23.404;2023-04-01T09:05:18;10.95;;;3.05;;
77701;SDS011;66868;42.708;23.404;2023-04-01T09:08:07;4.10;;;2.80;;
77701;SDS011;66868;42.708;23.404;2023-04-01T09:21:58;4.50;;;3.45;;
77701;SDS011;66868;42.708;23.404;2023-04-01T09:27:35;11.55;;;3.00;;
77701;SDS011;66868;42.708;23.404;2023-04-01T09:44:34;2.95;;;2.45;;
77701;SDS011;66868;42.708;23.404;2023-04-01T09:53:24;9.43;;;3.55;;
77701;SDS011;66868;42.708;23.404;2023-04-01T09:56:07;8.88;;;3.58;;
77701;SDS011;66868;42.708;23.404;2023-04-01T10:12:46;4.60;;;3.78;;
77701;SDS011;66868;42.708;23.404;2023-04-01T10:40:53;5.72;;;3.72;;
77701;SDS011;66868;42.708;23.404;2023-04-01T10:51:53;10.32;;;3.10;;
77701;SDS011;66868;42.708;23.404;2023-04-01T11:28:43;9.13;;;3.10;;
77701;SDS011;66868;42.708;23.404;2023-04-01T11:31:20;12.55;;;4.82;;
77701;SDS011;66868;42.708;23.404;2023-04-01T11:34:01;16.42;;;4.43;;
77701;SDS011;66868;42.708;23.404;2023-04-01T11:36:55;5.80;;;3.47;;
77701;SDS011;66868;42.708;23.404;2023-04-01T11:50:27;5.40;;;3.33;;
77701;SDS011;66868;42.708;23.404;2023-04-01T12:01:44;6.57;;;3.47;;
77701;SDS011;66868;42.708;23.404;2023-04-01T12:06:51;6.10;;;4.32;;
77701;SDS011;66868;42.708;23.404;2023-04-01T12:20:40;5.25;;;3.22;;
77701;SDS011;66868;42.708;23.404;2023-04-01T12:31:27;6.65;;;3.42;;
77701;SDS011;66868;42.708;23.404;2023-04-01T12:36:38;8.65;;;3.85;;
77701;SDS011;66868;42.708;23.404;2023-04-01T12:42:31;3.35;;;3.05;;
77701;SDS011;66868;42.708;23.404;2023-04-01T13:02:11;5.70;;;3.17;;
77701;SDS011;66868;42.708;23.404;2023-04-01T13:29:09;5.82;;;4.75;;
77701;SDS011;66868;42.708;23.404;2023-04-01T13:31:46;14.65;;;8.95;;
77701;SDS011;66868;42.708;23.404;2023-04-01T13:43:25;3.45;;;3.15;;
77701;SDS011;66868;42.708;23.404;2023-04-01T14:13:41;2.50;;;2.30;;
77701;SDS011;66868;42.708;23.404;2023-04-01T14:21:43;2.80;;;2.55;;
77701;SDS011;66868;42.708;23.404;2023-04-01T14:24:50;7.75;;;4.45;;
77701;SDS011;66868;42.708;23.404;2023-04-01T14:41:51;10.95;;;3.50;;
77701;SDS011;66868;42.708;23.404;2023-04-01T14:44:36;4.13;;;3.38;;
77701;SDS011;66868;42.708;23.404;2023-04-01T14:50:06;3.38;;;3.13;;
77701;SDS011;66868;42.708;23.404;2023-04-01T14:52:39;3.70;;;3.40;;
77701;SDS011;66868;42.708;23.404;2023-04-01T14:55:20;6.63;;;3.95;;
77701;SDS011;66868;42.708;23.404;2023-04-01T14:58:11;4.65;;;3.25;;
77701;SDS011;66868;42.708;23.404;2023-04-01T15:03:28;5.38;;;3.25;;
77701;SDS011;66868;42.708;23.404;2023-04-01T15:08:48;3.25;;;3.05;;
77701;SDS011;66868;42.708;23.404;2023-04-01T15:11:23;2.67;;;2.42;;
77701;SDS011;66868;42.708;23.404;2023-04-01T15:16:59;46.33;;;26.08;;
77701;SDS011;66868;42.708;23.404;2023-04-01T15:25:29;2.47;;;2.38;;
77701;SDS011;66868;42.708;23.404;2023-04-01T15:31:04;5.45;;;2.78;;
77701;SDS011;66868;42.708;23.404;2023-04-01T15:33:57;4.28;;;3.95;;
77701;SDS011;66868;42.708;23.404;2023-04-01T15:36:32;6.72;;;4.93;;
77701;SDS011;66868;42.708;23.404;2023-04-01T15:39:38;13.80;;;8.07;;
77701;SDS011;66868;42.708;23.404;2023-04-01T15:47:53;16.90;;;9.75;;
77701;SDS011;66868;42.708;23.404;2023-04-01T15:50:28;11.38;;;4.32;;
77701;SDS011;66868;42.708;23.404;2023-04-01T15:56:23;3.33;;;1.95;;
77701;SDS011;66868;42.708;23.404;2023-04-01T16:04:05;1.45;;;1.45;;
77701;SDS011;66868;42.708;23.404;2023-04-01T16:15:21;3.17;;;3.08;;
77701;SDS011;66868;42.708;23.404;2023-04-01T16:18:32;3.20;;;2.92;;
77701;SDS011;66868;42.708;23.404;2023-04-01T16:23:50;5.25;;;3.63;;
77701;SDS011;66868;42.708;23.404;2023-04-01T16:29:07;7.70;;;3.65;;
77701;SDS011;66868;42.708;23.404;2023-04-01T16:31:37;5.32;;;3.25;;
77701;SDS011;66868;42.708;23.404;2023-04-01T16:52:00;2.50;;;2.40;;
77701;SDS011;66868;42.708;23.404;2023-04-01T16:57:47;2.97;;;2.83;;
77701;SDS011;66868;42.708;23.404;2023-04-01T17:00:27;3.10;;;2.92;;
77701;SDS011;66868;42.708;23.404;2023-04-01T17:11:41;1.88;;;1.77;;
77701;SDS011;66868;42.708;23.404;2023-04-01T17:17:34;1.80;;;1.70;;
77701;SDS011;66868;42.708;23.404;2023-04-01T17:20:14;1.88;;;1.77;;
77701;SDS011;66868;42.708;23.404;2023-04-01T17:23:00;2.50;;;2.40;;
77701;SDS011;66868;42.708;23.404;2023-04-01T17:42:05;3.47;;;3.17;;
77701;SDS011;66868;42.708;23.404;2023-04-01T17:47:10;3.58;;;3.38;;
77701;SDS011;66868;42.708;23.404;2023-04-01T17:52:45;3.05;;;2.95;;
77701;SDS011;66868;42.708;23.404;2023-04-01T17:58:33;2.60;;;2.40;;
77701;SDS011;66868;42.708;23.404;2023-04-01T18:01:12;4.18;;;3.88;;
77701;SDS011;66868;42.708;23.404;2023-04-01T18:06:55;2.80;;;2.70;;
77701;SDS011;66868;42.708;23.404;2023-04-01T18:22:48;3.90;;;3.80;;
77701;SDS011;66868;42.708;23.404;2023-04-01T18:25:32;4.63;;;4.32;;
77701;SDS011;66868;42.708;23.404;2023-04-01T18:33:35;3.67;;;3.47;;
77701;SDS011;66868;42.708;23.404;2023-04-01T18:38:45;3.40;;;3.25;;
77701;SDS011;66868;42.708;23.404;2023-04-01T18:51:51;3.80;;;3.50;;
77701;SDS011;66868;42.708;23.404;2023-04-01T18:57:25;3.53;;;3.28;;
77701;SDS011;66868;42.708;23.404;2023-04-01T19:03:08;4.10;;;3.90;;
77701;SDS011;66868;42.708;23.404;2023-04-01T19:05:34;4.10;;;3.90;;
77701;SDS011;66868;42.708;23.404;2023-04-01T19:08:26;4.20;;;4.00;;
77701;SDS011;66868;42.708;23.404;2023-04-01T19:21:47;3.35;;;2.97;;
77701;SDS011;66868;42.708;23.404;2023-04-01T19:30:10;2.72;;;2.63;;
77701;SDS011;66868;42.708;23.404;2023-04-01T19:33:02;2.35;;;2.25;;
77701;SDS011;66868;42.708;23.404;2023-04-01T19:35:37;2.40;;;2.30;;
77701;SDS011;66868;42.708;23.404;2023-04-01T19:41:11;2.00;;;2.00;;
77701;SDS011;66868;42.708;23.404;2023-04-01T19:46:55;2.70;;;2.60;;
77701;SDS011;66868;42.708;23.404;2023-04-01T19:49:34;2.83;;;2.72;;
77701;SDS011;66868;42.708;23.404;2023-04-01T19:52:20;2.80;;;2.70;;
77701;SDS011;66868;42.708;23.404;2023-04-01T20:00:39;3.53;;;3.33;;
77701;SDS011;66868;42.708;23.404;2023-04-01T20:08:42;3.95;;;3.65;;
77701;SDS011;66868;42.708;23.404;2023-04-01T20:14:38;3.42;;;3.22;;
77701;SDS011;66868;42.708;23.404;2023-04-01T20:17:30;3.00;;;2.90;;
77701;SDS011;66868;42.708;23.404;2023-04-01T20:27:50;2.92;;;1.70;;
77701;SDS011;66868;42.708;23.404;2023-04-01T20:36:11;2.35;;;2.25;;
77701;SDS011;66868;42.708;23.404;2023-04-01T20:41:34;3.25;;;3.05;;
77701;SDS011;66868;42.708;23.404;2023-04-01T20:44:10;4.60;;;4.30;;
77701;SDS011;66868;42.708;23.404;2023-04-01T21:00:41;4.15;;;3.90;;
77701;SDS011;66868;42.708;23.404;2023-04-01T21:03:23;5.32;;;4.93;;
77701;SDS011;66868;42.708;23.404;2023-04-01T21:14:47;4.57;;;4.18;;
77701;SDS011;66868;42.708;23.404;2023-04-01T21:25:32;4.65;;;4.35;;
77701;SDS011;66868;42.708;23.404;2023-04-01T21:39:16;4.63;;;4.22;;
77701;SDS011;66868;42.708;23.404;2023-04-01T22:00:32;5.05;;;4.68;;
77701;SDS011;66868;42.708;23.404;2023-04-01T22:13:49;7.35;;;2.92;;
77701;SDS011;66868;42.708;23.404;2023-04-01T22:55:50;2.72;;;2.63;;
77701;SDS011;66868;42.708;23.404;2023-04-01T22:58:19;2.80;;;2.70;;
77701;SDS011;66868;42.708;23.404;2023-04-01T23:00:53;4.00;;;3.70;;
77701;SDS011;66868;42.708;23.404;2023-04-01T23:03:41;3.20;;;3.10;;
77701;SDS011;66868;42.708;23.404;2023-04-01T23:06:12;3.57;;;3.37;;
77701;SDS011;66868;42.708;23.404;2023-04-01T23:22:53;2.75;;;2.65;;
77701;SDS011;66868;42.708;23.404;2023-04-01T23:25:46;2.78;;;2.67;;
77701;SDS011;66868;42.708;23.404;2023-04-01T23:30:57;3.20;;;3.00;;
77701;SDS011;66868;42.708;23.404;2023-04-01T23:33:23;2.70;;;2.60;;
77701;SDS011;66868;42.708;23.404;2023-04-01T23:38:35;2.20;;;2.10;;
77701;SDS011;66868;42.708;23.404;2023-04-01T23:41:04;2.20;;;2.10;;
77701;SDS011;66868;42.708;23.404;2023-04-01T23:43:35;2.80;;;2.70;;
77701;SDS011;66868;42.708;23.404;2023-04-01T23:46:03;2.10;;;2.00;;
77701;SDS011;66868;42.708;23.404;2023-04-01T23:48:43;2.63;;;2.13;;
77701;SDS011;66868;42.708;23.404;2023-04-01T23:51:28;1.60;;;1.58;;
77701;SDS011;66868;42.708;23.404;2023-04-01T23:54:10;1.80;;;1.70;;
77701;SDS011;66868;42.708;23.404;2023-04-01T23:56:53;2.37;;;1.73;;
77701;SDS011;66868;42.708;23.404;2023-04-01T23:59:27;3.05;;;2.85;;
